Terminal Aerodrome Forecast
Issued by NWS

Home | Current Version | Previous Version | Text Only | Print | Product List | Glossary On
Versions: 1 2 3 4 5 6 7 8 9 10 11 12 13 14 15 16 17 18 19
000
FTUS46 KPDT 221740
TAFRDM
TAF
KRDM 221740Z 2218/2318 VRB06G12KT P6SM BKN160 BKN180
     FM230300 18008KT P6SM BKN070 OVC100
      TEMPO 2303/2306 P6SM -RA OVC050=

USA.gov is the U.S. government's official web portal to all federal, state and local government web resources and services.